sensor_id;sensor_type;location;lat;lon;timestamp;temperature;humidity
22235;DHT22;11286;45.596;5.284;2023-01-29T00:00:02;3.40;99.90
22235;DHT22;11286;45.596;5.284;2023-01-29T00:02:35;3.70;99.90
22235;DHT22;11286;45.596;5.284;2023-01-29T00:05:02;3.30;99.90
22235;DHT22;11286;45.596;5.284;2023-01-29T00:07:28;3.40;99.90
22235;DHT22;11286;45.596;5.284;2023-01-29T00:09:54;3.80;99.90
22235;DHT22;11286;45.596;5.284;2023-01-29T00:12:20;3.70;99.90
22235;DHT22;11286;45.596;5.284;2023-01-29T00:14:45;3.70;99.90
22235;DHT22;11286;45.596;5.284;2023-01-29T00:17:11;3.40;99.90
22235;DHT22;11286;45.596;5.284;2023-01-29T00:19:37;3.40;99.90
22235;DHT22;11286;45.596;5.284;2023-01-29T00:22:02;3.80;99.90
22235;DHT22;11286;45.596;5.284;2023-01-29T00:24:28;3.50;99.90
22235;DHT22;11286;45.596;5.284;2023-01-29T00:26:54;3.60;99.90
22235;DHT22;11286;45.596;5.284;2023-01-29T00:29:20;3.50;99.90
22235;DHT22;11286;45.596;5.284;2023-01-29T00:31:46;3.50;99.90
22235;DHT22;11286;45.596;5.284;2023-01-29T00:34:12;3.80;99.90
22235;DHT22;11286;45.596;5.284;2023-01-29T00:36:37;3.70;99.90
22235;DHT22;11286;45.596;5.284;2023-01-29T00:39:03;3.30;99.90
22235;DHT22;11286;45.596;5.284;2023-01-29T00:41:35;3.70;99.90
22235;DHT22;11286;45.596;5.284;2023-01-29T00:44:19;3.30;99.90
22235;DHT22;11286;45.596;5.284;2023-01-29T00:47:20;3.70;99.90
22235;DHT22;11286;45.596;5.284;2023-01-29T00:49:55;3.70;99.90
22235;DHT22;11286;45.596;5.284;2023-01-29T00:52:22;3.20;99.90
22235;DHT22;11286;45.596;5.284;2023-01-29T00:54:55;3.30;99.90
22235;DHT22;11286;45.596;5.284;2023-01-29T00:57:23;3.30;99.90
22235;DHT22;11286;45.596;5.284;2023-01-29T00:59:49;3.50;99.90
22235;DHT22;11286;45.596;5.284;2023-01-29T01:02:16;3.20;99.90
22235;DHT22;11286;45.596;5.284;2023-01-29T01:05:00;3.40;99.90
22235;DHT22;11286;45.596;5.284;2023-01-29T01:07:30;3.60;99.90
22235;DHT22;11286;45.596;5.284;2023-01-29T01:09:56;3.20;99.90
22235;DHT22;11286;45.596;5.284;2023-01-29T01:12:40;3.40;99.90
22235;DHT22;11286;45.596;5.284;2023-01-29T01:15:06;3.50;99.90
22235;DHT22;11286;45.596;5.284;2023-01-29T01:17:32;3.20;99.90
22235;DHT22;11286;45.596;5.284;2023-01-29T01:19:59;3.20;99.90
22235;DHT22;11286;45.596;5.284;2023-01-29T01:22:24;3.60;99.90
22235;DHT22;11286;45.596;5.284;2023-01-29T01:24:50;3.40;99.90
22235;DHT22;11286;45.596;5.284;2023-01-29T01:27:16;3.20;99.90
22235;DHT22;11286;45.596;5.284;2023-01-29T01:29:47;3.20;99.90
22235;DHT22;11286;45.596;5.284;2023-01-29T01:32:13;3.20;99.90
22235;DHT22;11286;45.596;5.284;2023-01-29T01:34:38;3.50;99.90
22235;DHT22;11286;45.596;5.284;2023-01-29T01:37:04;3.60;99.90
22235;DHT22;11286;45.596;5.284;2023-01-29T01:39:30;3.20;99.90
22235;DHT22;11286;45.596;5.284;2023-01-29T01:41:55;3.20;99.90
22235;DHT22;11286;45.596;5.284;2023-01-29T01:47:29;3.30;99.90
22235;DHT22;11286;45.596;5.284;2023-01-29T01:49:56;3.30;99.90
22235;DHT22;11286;45.596;5.284;2023-01-29T01:52:28;3.30;99.90
22235;DHT22;11286;45.596;5.284;2023-01-29T01:54:55;3.20;99.90
22235;DHT22;11286;45.596;5.284;2023-01-29T01:57:22;3.50;99.90
22235;DHT22;11286;45.596;5.284;2023-01-29T01:59:59;3.20;99.90
22235;DHT22;11286;45.596;5.284;2023-01-29T02:02:26;3.60;99.90
22235;DHT22;11286;45.596;5.284;2023-01-29T02:05:12;3.60;99.90
22235;DHT22;11286;45.596;5.284;2023-01-29T02:07:57;3.40;99.90
22235;DHT22;11286;45.596;5.284;2023-01-29T02:10:44;3.50;99.90
22235;DHT22;11286;45.596;5.284;2023-01-29T02:13:10;3.30;99.90
22235;DHT22;11286;45.596;5.284;2023-01-29T02:15:37;3.50;99.90
22235;DHT22;11286;45.596;5.284;2023-01-29T02:18:16;3.30;99.90
22235;DHT22;11286;45.596;5.284;2023-01-29T02:20:53;3.70;99.90
22235;DHT22;11286;45.596;5.284;2023-01-29T02:26:39;3.30;99.90
22235;DHT22;11286;45.596;5.284;2023-01-29T02:29:30;3.30;99.90
22235;DHT22;11286;45.596;5.284;2023-01-29T02:35:07;3.40;99.90
22235;DHT22;11286;45.596;5.284;2023-01-29T02:40:43;3.50;99.90
22235;DHT22;11286;45.596;5.284;2023-01-29T02:46:15;3.20;99.90
22235;DHT22;11286;45.596;5.284;2023-01-29T02:51:24;3.30;99.90
22235;DHT22;11286;45.596;5.284;2023-01-29T02:56:56;3.30;99.90
22235;DHT22;11286;45.596;5.284;2023-01-29T02:59:19;3.30;99.90
22235;DHT22;11286;45.596;5.284;2023-01-29T03:01:54;3.30;99.90
22235;DHT22;11286;45.596;5.284;2023-01-29T03:04:29;3.60;99.90
22235;DHT22;11286;45.596;5.284;2023-01-29T03:07:26;3.40;99.90
22235;DHT22;11286;45.596;5.284;2023-01-29T03:12:59;3.30;99.90
22235;DHT22;11286;45.596;5.284;2023-01-29T03:15:33;3.30;99.90
22235;DHT22;11286;45.596;5.284;2023-01-29T03:18:19;3.30;99.90
22235;DHT22;11286;45.596;5.284;2023-01-29T03:20:53;3.20;99.90
22235;DHT22;11286;45.596;5.284;2023-01-29T03:23:28;3.30;99.90
22235;DHT22;11286;45.596;5.284;2023-01-29T03:26:15;3.20;99.90
22235;DHT22;11286;45.596;5.284;2023-01-29T03:29:00;3.30;99.90
22235;DHT22;11286;45.596;5.284;2023-01-29T03:31:47;3.30;99.90
22235;DHT22;11286;45.596;5.284;2023-01-29T03:34:40;3.00;99.90
22235;DHT22;11286;45.596;5.284;2023-01-29T03:37:13;3.20;99.90
22235;DHT22;11286;45.596;5.284;2023-01-29T03:39:41;3.20;99.90
22235;DHT22;11286;45.596;5.284;2023-01-29T03:53:52;3.30;99.90
22235;DHT22;11286;45.596;5.284;2023-01-29T03:59:01;3.20;99.90
22235;DHT22;11286;45.596;5.284;2023-01-29T04:01:32;3.30;99.90
22235;DHT22;11286;45.596;5.284;2023-01-29T04:04:13;3.50;99.90
22235;DHT22;11286;45.596;5.284;2023-01-29T04:06:41;3.30;99.90
22235;DHT22;11286;45.596;5.284;2023-01-29T04:09:33;3.30;99.90
22235;DHT22;11286;45.596;5.284;2023-01-29T04:12:07;3.40;99.90
22235;DHT22;11286;45.596;5.284;2023-01-29T04:14:33;3.20;99.90
22235;DHT22;11286;45.596;5.284;2023-01-29T04:17:23;3.50;99.90
22235;DHT22;11286;45.596;5.284;2023-01-29T04:19:48;3.30;99.90
22235;DHT22;11286;45.596;5.284;2023-01-29T04:22:21;3.60;99.90
22235;DHT22;11286;45.596;5.284;2023-01-29T04:24:50;3.30;99.90
22235;DHT22;11286;45.596;5.284;2023-01-29T04:33:06;3.40;99.90
22235;DHT22;11286;45.596;5.284;2023-01-29T04:38:11;3.40;99.90
22235;DHT22;11286;45.596;5.284;2023-01-29T04:40:50;3.30;99.90
22235;DHT22;11286;45.596;5.284;2023-01-29T04:43:27;3.30;99.90
22235;DHT22;11286;45.596;5.284;2023-01-29T04:46:14;3.40;99.90
22235;DHT22;11286;45.596;5.284;2023-01-29T04:48:56;3.30;99.90
22235;DHT22;11286;45.596;5.284;2023-01-29T04:51:36;3.20;99.90
22235;DHT22;11286;45.596;5.284;2023-01-29T04:54:24;3.20;99.90
22235;DHT22;11286;45.596;5.284;2023-01-29T04:56:56;3.50;99.90
22235;DHT22;11286;45.596;5.284;2023-01-29T04:59:32;3.00;99.90
22235;DHT22;11286;45.596;5.284;2023-01-29T05:02:01;3.20;99.90
22235;DHT22;11286;45.596;5.284;2023-01-29T05:04:29;3.20;99.90
22235;DHT22;11286;45.596;5.284;2023-01-29T05:06:57;3.10;99.90
22235;DHT22;11286;45.596;5.284;2023-01-29T05:09:25;2.90;99.90
22235;DHT22;11286;45.596;5.284;2023-01-29T05:11:51;3.30;99.90
22235;DHT22;11286;45.596;5.284;2023-01-29T05:14:18;3.40;99.90
22235;DHT22;11286;45.596;5.284;2023-01-29T05:16:51;2.80;99.90
22235;DHT22;11286;45.596;5.284;2023-01-29T05:19:17;3.20;99.90
22235;DHT22;11286;45.596;5.284;2023-01-29T05:21:45;2.70;99.90
22235;DHT22;11286;45.596;5.284;2023-01-29T05:24:19;2.70;99.90
22235;DHT22;11286;45.596;5.284;2023-01-29T05:26:47;2.80;99.90
22235;DHT22;11286;45.596;5.284;2023-01-29T05:29:31;3.30;99.90
22235;DHT22;11286;45.596;5.284;2023-01-29T05:31:57;2.70;99.90
22235;DHT22;11286;45.596;5.284;2023-01-29T05:34:22;2.70;99.90
22235;DHT22;11286;45.596;5.284;2023-01-29T05:36:49;3.20;99.90
22235;DHT22;11286;45.596;5.284;2023-01-29T05:39:15;3.20;99.90
22235;DHT22;11286;45.596;5.284;2023-01-29T05:41:41;2.60;99.90
22235;DHT22;11286;45.596;5.284;2023-01-29T05:44:08;3.00;99.90
22235;DHT22;11286;45.596;5.284;2023-01-29T05:46:34;3.10;99.90
22235;DHT22;11286;45.596;5.284;2023-01-29T05:48:59;3.00;99.90
22235;DHT22;11286;45.596;5.284;2023-01-29T05:51:25;2.90;99.90
22235;DHT22;11286;45.596;5.284;2023-01-29T05:53:50;2.90;99.90
22235;DHT22;11286;45.596;5.284;2023-01-29T05:56:16;3.00;99.90
22235;DHT22;11286;45.596;5.284;2023-01-29T05:58:42;2.50;99.90
22235;DHT22;11286;45.596;5.284;2023-01-29T06:01:16;2.90;99.90
22235;DHT22;11286;45.596;5.284;2023-01-29T06:03:42;2.60;99.90
22235;DHT22;11286;45.596;5.284;2023-01-29T06:06:08;2.80;99.90
22235;DHT22;11286;45.596;5.284;2023-01-29T06:08:34;3.00;99.90
22235;DHT22;11286;45.596;5.284;2023-01-29T06:11:00;2.40;99.90
22235;DHT22;11286;45.596;5.284;2023-01-29T06:13:25;2.70;99.90
22235;DHT22;11286;45.596;5.284;2023-01-29T06:15:51;2.40;99.90
22235;DHT22;11286;45.596;5.284;2023-01-29T06:18:17;2.90;99.90
22235;DHT22;11286;45.596;5.284;2023-01-29T06:20:42;2.50;99.90
22235;DHT22;11286;45.596;5.284;2023-01-29T06:23:08;2.50;99.90
22235;DHT22;11286;45.596;5.284;2023-01-29T06:25:34;2.40;99.90
22235;DHT22;11286;45.596;5.284;2023-01-29T06:27:59;2.40;99.90
22235;DHT22;11286;45.596;5.284;2023-01-29T06:30:25;3.00;99.90
22235;DHT22;11286;45.596;5.284;2023-01-29T06:32:55;2.50;99.90
22235;DHT22;11286;45.596;5.284;2023-01-29T06:35:23;2.80;99.90
22235;DHT22;11286;45.596;5.284;2023-01-29T06:37:50;2.90;99.90
22235;DHT22;11286;45.596;5.284;2023-01-29T06:40:16;2.40;99.90
22235;DHT22;11286;45.596;5.284;2023-01-29T06:42:41;2.20;99.90
22235;DHT22;11286;45.596;5.284;2023-01-29T06:45:07;2.30;99.90
22235;DHT22;11286;45.596;5.284;2023-01-29T06:47:33;2.30;99.90
22235;DHT22;11286;45.596;5.284;2023-01-29T06:49:59;2.40;99.90
22235;DHT22;11286;45.596;5.284;2023-01-29T06:52:25;2.60;99.90
22235;DHT22;11286;45.596;5.284;2023-01-29T06:54:53;2.40;99.90
22235;DHT22;11286;45.596;5.284;2023-01-29T06:57:19;2.70;99.90
22235;DHT22;11286;45.596;5.284;2023-01-29T06:59:45;3.10;99.90
22235;DHT22;11286;45.596;5.284;2023-01-29T07:02:10;3.00;99.90
22235;DHT22;11286;45.596;5.284;2023-01-29T07:04:36;2.50;99.90
22235;DHT22;11286;45.596;5.284;2023-01-29T07:07:02;2.90;99.90
22235;DHT22;11286;45.596;5.284;2023-01-29T07:09:28;2.50;99.90
22235;DHT22;11286;45.596;5.284;2023-01-29T07:11:54;2.60;99.90
22235;DHT22;11286;45.596;5.284;2023-01-29T07:14:19;2.50;99.90
22235;DHT22;11286;45.596;5.284;2023-01-29T07:16:45;2.50;99.90
22235;DHT22;11286;45.596;5.284;2023-01-29T07:19:10;2.40;99.90
22235;DHT22;11286;45.596;5.284;2023-01-29T07:21:36;2.30;99.90
22235;DHT22;11286;45.596;5.284;2023-01-29T07:24:02;2.70;99.90
22235;DHT22;11286;45.596;5.284;2023-01-29T07:26:28;2.50;99.90
22235;DHT22;11286;45.596;5.284;2023-01-29T07:28:53;2.70;99.90
22235;DHT22;11286;45.596;5.284;2023-01-29T07:31:19;3.20;99.90
22235;DHT22;11286;45.596;5.284;2023-01-29T07:33:45;2.90;99.90
22235;DHT22;11286;45.596;5.284;2023-01-29T07:36:12;2.60;99.90
22235;DHT22;11286;45.596;5.284;2023-01-29T07:38:37;3.00;99.90
22235;DHT22;11286;45.596;5.284;2023-01-29T07:41:03;3.00;99.90
22235;DHT22;11286;45.596;5.284;2023-01-29T07:43:29;2.30;99.90
22235;DHT22;11286;45.596;5.284;2023-01-29T07:45:54;2.50;99.90
22235;DHT22;11286;45.596;5.284;2023-01-29T07:48:20;2.50;99.90
22235;DHT22;11286;45.596;5.284;2023-01-29T07:50:56;3.00;99.90
22235;DHT22;11286;45.596;5.284;2023-01-29T07:53:23;2.60;99.90
22235;DHT22;11286;45.596;5.284;2023-01-29T07:55:48;2.80;99.90
22235;DHT22;11286;45.596;5.284;2023-01-29T07:58:14;2.90;99.90
22235;DHT22;11286;45.596;5.284;2023-01-29T08:00:40;2.70;99.90
22235;DHT22;11286;45.596;5.284;2023-01-29T08:03:12;2.80;99.90
22235;DHT22;11286;45.596;5.284;2023-01-29T08:05:38;3.10;99.90
22235;DHT22;11286;45.596;5.284;2023-01-29T08:08:03;2.80;99.90
22235;DHT22;11286;45.596;5.284;2023-01-29T08:10:30;2.80;99.90
22235;DHT22;11286;45.596;5.284;2023-01-29T08:12:57;2.90;99.90
22235;DHT22;11286;45.596;5.284;2023-01-29T08:15:24;3.50;99.90
22235;DHT22;11286;45.596;5.284;2023-01-29T08:17:50;3.30;99.90
22235;DHT22;11286;45.596;5.284;2023-01-29T08:20:16;3.20;99.90
22235;DHT22;11286;45.596;5.284;2023-01-29T08:22:42;3.30;99.90
22235;DHT22;11286;45.596;5.284;2023-01-29T08:25:08;3.50;99.90
22235;DHT22;11286;45.596;5.284;2023-01-29T08:27:34;3.10;99.90
22235;DHT22;11286;45.596;5.284;2023-01-29T08:29:59;3.50;99.90
22235;DHT22;11286;45.596;5.284;2023-01-29T08:32:25;3.60;99.90
22235;DHT22;11286;45.596;5.284;2023-01-29T08:34:51;3.60;99.90
22235;DHT22;11286;45.596;5.284;2023-01-29T08:37:17;3.60;99.90
22235;DHT22;11286;45.596;5.284;2023-01-29T08:39:42;3.30;99.90
22235;DHT22;11286;45.596;5.284;2023-01-29T08:42:08;3.30;99.90
22235;DHT22;11286;45.596;5.284;2023-01-29T08:44:33;3.10;99.90
22235;DHT22;11286;45.596;5.284;2023-01-29T08:46:59;3.30;99.90
22235;DHT22;11286;45.596;5.284;2023-01-29T08:49:25;3.40;99.90
22235;DHT22;11286;45.596;5.284;2023-01-29T08:51:50;3.20;99.90
22235;DHT22;11286;45.596;5.284;2023-01-29T08:54:16;3.20;99.90
22235;DHT22;11286;45.596;5.284;2023-01-29T08:56:42;3.30;99.90
22235;DHT22;11286;45.596;5.284;2023-01-29T08:59:09;3.30;99.90
22235;DHT22;11286;45.596;5.284;2023-01-29T09:01:35;3.40;99.90
22235;DHT22;11286;45.596;5.284;2023-01-29T09:04:01;3.50;99.90
22235;DHT22;11286;45.596;5.284;2023-01-29T09:06:26;3.20;99.90
22235;DHT22;11286;45.596;5.284;2023-01-29T09:08:52;3.60;99.90
22235;DHT22;11286;45.596;5.284;2023-01-29T09:11:17;3.30;99.90
22235;DHT22;11286;45.596;5.284;2023-01-29T09:13:43;3.30;99.90
22235;DHT22;11286;45.596;5.284;2023-01-29T09:16:09;3.40;99.90
22235;DHT22;11286;45.596;5.284;2023-01-29T09:18:35;3.50;99.90
22235;DHT22;11286;45.596;5.284;2023-01-29T09:21:01;3.70;99.90
22235;DHT22;11286;45.596;5.284;2023-01-29T09:23:28;3.90;99.90
22235;DHT22;11286;45.596;5.284;2023-01-29T09:25:54;4.00;99.90
22235;DHT22;11286;45.596;5.284;2023-01-29T09:28:20;4.00;99.90
22235;DHT22;11286;45.596;5.284;2023-01-29T09:30:45;4.20;99.90
22235;DHT22;11286;45.596;5.284;2023-01-29T09:33:11;3.70;99.90
22235;DHT22;11286;45.596;5.284;2023-01-29T09:35:39;3.70;99.90
22235;DHT22;11286;45.596;5.284;2023-01-29T09:38:05;3.80;99.90
22235;DHT22;11286;45.596;5.284;2023-01-29T09:43:54;4.00;99.90
22235;DHT22;11286;45.596;5.284;2023-01-29T09:51:40;4.00;99.90
22235;DHT22;11286;45.596;5.284;2023-01-29T09:54:29;4.30;99.90
22235;DHT22;11286;45.596;5.284;2023-01-29T09:56:57;3.90;99.90
22235;DHT22;11286;45.596;5.284;2023-01-29T09:59:25;3.90;99.90
22235;DHT22;11286;45.596;5.284;2023-01-29T10:02:08;4.30;99.90
22235;DHT22;11286;45.596;5.284;2023-01-29T10:12:59;4.10;99.90
22235;DHT22;11286;45.596;5.284;2023-01-29T10:18:37;3.80;99.90
22235;DHT22;11286;45.596;5.284;2023-01-29T10:24:48;4.10;99.90
22235;DHT22;11286;45.596;5.284;2023-01-29T10:27:16;3.90;99.90
22235;DHT22;11286;45.596;5.284;2023-01-29T10:29:43;4.40;99.90
22235;DHT22;11286;45.596;5.284;2023-01-29T10:32:21;4.00;99.90
22235;DHT22;11286;45.596;5.284;2023-01-29T10:35:04;4.10;99.90
22235;DHT22;11286;45.596;5.284;2023-01-29T10:37:39;4.10;99.90
22235;DHT22;11286;45.596;5.284;2023-01-29T10:42:45;3.90;99.90
22235;DHT22;11286;45.596;5.284;2023-01-29T10:46:35;3.70;99.90
22235;DHT22;11286;45.596;5.284;2023-01-29T10:48:57;4.00;99.90
22235;DHT22;11286;45.596;5.284;2023-01-29T10:51:44;3.80;99.90
22235;DHT22;11286;45.596;5.284;2023-01-29T10:54:30;3.80;99.90
22235;DHT22;11286;45.596;5.284;2023-01-29T11:00:19;3.70;99.90
22235;DHT22;11286;45.596;5.284;2023-01-29T11:02:48;3.90;99.90
22235;DHT22;11286;45.596;5.284;2023-01-29T11:05:34;3.90;99.90
22235;DHT22;11286;45.596;5.284;2023-01-29T11:08:09;4.00;99.90
22235;DHT22;11286;45.596;5.284;2023-01-29T11:10:43;4.50;99.90
22235;DHT22;11286;45.596;5.284;2023-01-29T11:13:13;4.20;99.90
22235;DHT22;11286;45.596;5.284;2023-01-29T11:15:39;4.10;99.90
22235;DHT22;11286;45.596;5.284;2023-01-29T11:18:13;4.30;99.90
22235;DHT22;11286;45.596;5.284;2023-01-29T11:20:41;4.40;99.90
22235;DHT22;11286;45.596;5.284;2023-01-29T11:23:28;4.20;99.90
22235;DHT22;11286;45.596;5.284;2023-01-29T11:25:56;3.90;99.90
22235;DHT22;11286;45.596;5.284;2023-01-29T11:28:43;3.80;99.90
22235;DHT22;11286;45.596;5.284;2023-01-29T11:33:45;4.20;99.90
22235;DHT22;11286;45.596;5.284;2023-01-29T11:36:35;4.60;99.90
22235;DHT22;11286;45.596;5.284;2023-01-29T11:39:22;4.10;99.90
22235;DHT22;11286;45.596;5.284;2023-01-29T11:42:00;4.20;99.90
22235;DHT22;11286;45.596;5.284;2023-01-29T11:44:31;4.20;99.90
22235;DHT22;11286;45.596;5.284;2023-01-29T11:49:57;4.00;99.90
22235;DHT22;11286;45.596;5.284;2023-01-29T11:52:33;4.10;99.90
22235;DHT22;11286;45.596;5.284;2023-01-29T11:55:02;4.10;99.90
22235;DHT22;11286;45.596;5.284;2023-01-29T11:57:38;4.40;99.90
22235;DHT22;11286;45.596;5.284;2023-01-29T12:00:21;4.20;99.90
22235;DHT22;11286;45.596;5.284;2023-01-29T12:02:52;4.30;99.90
22235;DHT22;11286;45.596;5.284;2023-01-29T12:05:22;4.30;99.90
22235;DHT22;11286;45.596;5.284;2023-01-29T12:07:59;4.30;99.90
22235;DHT22;11286;45.596;5.284;2023-01-29T12:10:36;4.50;99.90
22235;DHT22;11286;45.596;5.284;2023-01-29T12:15:41;4.90;99.90
22235;DHT22;11286;45.596;5.284;2023-01-29T12:18:29;5.10;99.90
22235;DHT22;11286;45.596;5.284;2023-01-29T12:21:09;4.80;99.90
22235;DHT22;11286;45.596;5.284;2023-01-29T12:24:27;4.90;99.90
22235;DHT22;11286;45.596;5.284;2023-01-29T12:26:38;5.30;99.90
22235;DHT22;11286;45.596;5.284;2023-01-29T12:29:16;4.90;99.90
22235;DHT22;11286;45.596;5.284;2023-01-29T12:34:32;4.60;99.90
22235;DHT22;11286;45.596;5.284;2023-01-29T12:39:59;4.50;99.90
22235;DHT22;11286;45.596;5.284;2023-01-29T12:42:26;5.00;99.90
22235;DHT22;11286;45.596;5.284;2023-01-29T12:44:58;5.10;99.90
22235;DHT22;11286;45.596;5.284;2023-01-29T12:47:35;4.90;99.90
22235;DHT22;11286;45.596;5.284;2023-01-29T12:50:08;4.80;99.90
22235;DHT22;11286;45.596;5.284;2023-01-29T12:55:50;4.80;99.90
22235;DHT22;11286;45.596;5.284;2023-01-29T12:58:33;4.90;99.90
22235;DHT22;11286;45.596;5.284;2023-01-29T13:03:58;4.70;99.90
22235;DHT22;11286;45.596;5.284;2023-01-29T13:06:29;5.10;99.90
22235;DHT22;11286;45.596;5.284;2023-01-29T13:09:03;4.90;99.90
22235;DHT22;11286;45.596;5.284;2023-01-29T13:14:50;5.00;99.90
22235;DHT22;11286;45.596;5.284;2023-01-29T13:17:35;4.90;99.90
22235;DHT22;11286;45.596;5.284;2023-01-29T13:20:26;5.30;99.90
22235;DHT22;11286;45.596;5.284;2023-01-29T13:22:56;5.00;99.90
22235;DHT22;11286;45.596;5.284;2023-01-29T13:25:22;5.00;99.90
22235;DHT22;11286;45.596;5.284;2023-01-29T13:27:48;5.20;99.90
22235;DHT22;11286;45.596;5.284;2023-01-29T13:30:28;5.10;99.90
22235;DHT22;11286;45.596;5.284;2023-01-29T13:32:55;5.10;99.90
22235;DHT22;11286;45.596;5.284;2023-01-29T13:35:37;5.20;99.90
22235;DHT22;11286;45.596;5.284;2023-01-29T13:38:05;4.80;99.90
22235;DHT22;11286;45.596;5.284;2023-01-29T13:40:48;5.10;99.90
22235;DHT22;11286;45.596;5.284;2023-01-29T13:43:19;5.10;99.90
22235;DHT22;11286;45.596;5.284;2023-01-29T13:45:46;4.90;99.90
22235;DHT22;11286;45.596;5.284;2023-01-29T13:48:27;5.10;99.90
22235;DHT22;11286;45.596;5.284;2023-01-29T13:50:54;4.90;99.90
22235;DHT22;11286;45.596;5.284;2023-01-29T13:53:26;5.10;99.90
22235;DHT22;11286;45.596;5.284;2023-01-29T13:55:53;5.00;99.90
22235;DHT22;11286;45.596;5.284;2023-01-29T14:00:58;5.20;99.90
22235;DHT22;11286;45.596;5.284;2023-01-29T14:13:39;5.10;99.90
22235;DHT22;11286;45.596;5.284;2023-01-29T14:19:04;5.20;99.90
22235;DHT22;11286;45.596;5.284;2023-01-29T14:21:34;5.30;99.90
22235;DHT22;11286;45.596;5.284;2023-01-29T14:24:21;5.10;99.90
22235;DHT22;11286;45.596;5.284;2023-01-29T14:26:53;5.30;99.90
22235;DHT22;11286;45.596;5.284;2023-01-29T14:29:27;5.10;99.90
22235;DHT22;11286;45.596;5.284;2023-01-29T14:34:42;5.20;99.90
22235;DHT22;11286;45.596;5.284;2023-01-29T14:40:11;5.20;99.90
22235;DHT22;11286;45.596;5.284;2023-01-29T14:45:22;5.00;99.90
22235;DHT22;11286;45.596;5.284;2023-01-29T14:53:05;5.10;99.90
22235;DHT22;11286;45.596;5.284;2023-01-29T14:58:42;5.00;99.90
22235;DHT22;11286;45.596;5.284;2023-01-29T15:01:33;4.90;99.90
22235;DHT22;11286;45.596;5.284;2023-01-29T15:04:17;4.90;99.90
22235;DHT22;11286;45.596;5.284;2023-01-29T15:06:47;4.90;99.90
22235;DHT22;11286;45.596;5.284;2023-01-29T15:09:40;4.80;99.90
22235;DHT22;11286;45.596;5.284;2023-01-29T15:12:39;4.80;99.90
22235;DHT22;11286;45.596;5.284;2023-01-29T15:18:08;4.70;99.90
22235;DHT22;11286;45.596;5.284;2023-01-29T15:20:39;4.70;99.90
22235;DHT22;11286;45.596;5.284;2023-01-29T15:25:51;4.80;99.90
22235;DHT22;11286;45.596;5.284;2023-01-29T15:28:17;5.20;99.90
22235;DHT22;11286;45.596;5.284;2023-01-29T15:30:43;4.70;99.90
22235;DHT22;11286;45.596;5.284;2023-01-29T15:33:12;4.70;99.90
22235;DHT22;11286;45.596;5.284;2023-01-29T15:35:41;5.20;99.90
22235;DHT22;11286;45.596;5.284;2023-01-29T15:38:19;4.90;99.90
22235;DHT22;11286;45.596;5.284;2023-01-29T15:40:56;4.70;99.90
22235;DHT22;11286;45.596;5.284;2023-01-29T15:43:23;4.70;99.90
22235;DHT22;11286;45.596;5.284;2023-01-29T15:45:51;5.10;99.90
22235;DHT22;11286;45.596;5.284;2023-01-29T15:48:36;4.90;99.90
22235;DHT22;11286;45.596;5.284;2023-01-29T15:51:06;5.00;99.90
22235;DHT22;11286;45.596;5.284;2023-01-29T15:53:36;4.90;99.90
22235;DHT22;11286;45.596;5.284;2023-01-29T15:56:13;4.80;99.90
22235;DHT22;11286;45.596;5.284;2023-01-29T15:58:41;5.10;99.90
22235;DHT22;11286;45.596;5.284;2023-01-29T16:01:07;5.10;99.90
22235;DHT22;11286;45.596;5.284;2023-01-29T16:03:33;4.80;99.90
22235;DHT22;11286;45.596;5.284;2023-01-29T16:06:00;4.70;99.90
22235;DHT22;11286;45.596;5.284;2023-01-29T16:08:27;4.90;99.90
22235;DHT22;11286;45.596;5.284;2023-01-29T16:10:55;4.50;99.90
22235;DHT22;11286;45.596;5.284;2023-01-29T16:13:24;4.90;99.90
22235;DHT22;11286;45.596;5.284;2023-01-29T16:18:37;4.50;99.90
22235;DHT22;11286;45.596;5.284;2023-01-29T16:21:25;4.50;99.90
22235;DHT22;11286;45.596;5.284;2023-01-29T16:23:54;4.40;99.90
22235;DHT22;11286;45.596;5.284;2023-01-29T16:26:33;4.70;99.90
22235;DHT22;11286;45.596;5.284;2023-01-29T16:29:10;4.50;99.90
22235;DHT22;11286;45.596;5.284;2023-01-29T16:31:38;5.00;99.90
22235;DHT22;11286;45.596;5.284;2023-01-29T16:34:24;4.90;99.90
22235;DHT22;11286;45.596;5.284;2023-01-29T16:36:52;4.50;99.90
22235;DHT22;11286;45.596;5.284;2023-01-29T16:39:22;4.80;99.90
22235;DHT22;11286;45.596;5.284;2023-01-29T16:49:59;4.50;99.90
22235;DHT22;11286;45.596;5.284;2023-01-29T16:52:34;4.50;99.90
22235;DHT22;11286;45.596;5.284;2023-01-29T16:55:19;4.50;99.90
22235;DHT22;11286;45.596;5.284;2023-01-29T16:57:50;4.50;99.90
22235;DHT22;11286;45.596;5.284;2023-01-29T17:00:26;4.50;99.90
22235;DHT22;11286;45.596;5.284;2023-01-29T17:03:04;4.50;99.90
22235;DHT22;11286;45.596;5.284;2023-01-29T17:05:33;4.80;99.90
22235;DHT22;11286;45.596;5.284;2023-01-29T17:07:59;4.90;99.90
22235;DHT22;11286;45.596;5.284;2023-01-29T17:10:27;4.80;99.90
22235;DHT22;11286;45.596;5.284;2023-01-29T17:13:02;4.80;99.90
22235;DHT22;11286;45.596;5.284;2023-01-29T17:15:44;4.50;99.90
22235;DHT22;11286;45.596;5.284;2023-01-29T17:18:21;4.80;99.90
22235;DHT22;11286;45.596;5.284;2023-01-29T17:20:48;4.80;99.90
22235;DHT22;11286;45.596;5.284;2023-01-29T17:23:14;4.60;99.90
22235;DHT22;11286;45.596;5.284;2023-01-29T17:25:40;4.70;99.90
22235;DHT22;11286;45.596;5.284;2023-01-29T17:28:06;4.90;99.90
22235;DHT22;11286;45.596;5.284;2023-01-29T17:30:33;4.50;99.90
22235;DHT22;11286;45.596;5.284;2023-01-29T17:33:25;4.40;99.90
22235;DHT22;11286;45.596;5.284;2023-01-29T17:35:51;4.50;99.90
22235;DHT22;11286;45.596;5.284;2023-01-29T17:38:18;4.80;99.90
22235;DHT22;11286;45.596;5.284;2023-01-29T17:40:59;4.70;99.90
22235;DHT22;11286;45.596;5.284;2023-01-29T17:43:25;4.10;99.90
22235;DHT22;11286;45.596;5.284;2023-01-29T17:45:51;3.80;99.90
22235;DHT22;11286;45.596;5.284;2023-01-29T17:50:49;4.30;99.90
22235;DHT22;11286;45.596;5.284;2023-01-29T17:53:15;4.30;99.90
22235;DHT22;11286;45.596;5.284;2023-01-29T17:55:42;4.40;99.90
22235;DHT22;11286;45.596;5.284;2023-01-29T17:58:25;4.40;99.90
22235;DHT22;11286;45.596;5.284;2023-01-29T18:00:51;4.10;99.90
22235;DHT22;11286;45.596;5.284;2023-01-29T18:03:17;4.10;99.90
22235;DHT22;11286;45.596;5.284;2023-01-29T18:05:45;4.30;99.90
22235;DHT22;11286;45.596;5.284;2023-01-29T18:10:42;4.10;99.90
22235;DHT22;11286;45.596;5.284;2023-01-29T18:13:08;4.20;99.90
22235;DHT22;11286;45.596;5.284;2023-01-29T18:15:33;4.70;99.90
22235;DHT22;11286;45.596;5.284;2023-01-29T18:17:59;4.40;99.90
22235;DHT22;11286;45.596;5.284;2023-01-29T18:20:25;4.50;99.90
22235;DHT22;11286;45.596;5.284;2023-01-29T18:22:51;4.30;99.90
22235;DHT22;11286;45.596;5.284;2023-01-29T18:25:17;4.30;99.90
22235;DHT22;11286;45.596;5.284;2023-01-29T18:27:43;4.20;99.90
22235;DHT22;11286;45.596;5.284;2023-01-29T18:30:11;4.50;99.90
22235;DHT22;11286;45.596;5.284;2023-01-29T18:32:37;4.20;99.90
22235;DHT22;11286;45.596;5.284;2023-01-29T18:35:04;4.20;99.90
22235;DHT22;11286;45.596;5.284;2023-01-29T18:37:31;4.10;99.90
22235;DHT22;11286;45.596;5.284;2023-01-29T18:39:57;4.40;99.90
22235;DHT22;11286;45.596;5.284;2023-01-29T18:42:23;4.10;99.90